createdAt,value
2019-04-20T00:01:33.973Z,6.93
2019-04-20T00:04:05.336Z,7.20
2019-04-20T00:06:43.185Z,7.17
2019-04-20T00:09:15.813Z,6.80
2019-04-20T00:11:53.565Z,7.30
2019-04-20T00:14:24.039Z,6.27
2019-04-20T00:16:50.597Z,6.57
2019-04-20T00:19:34.506Z,7.50
2019-04-20T00:22:08.678Z,7.27
2019-04-20T00:24:43.839Z,7.57
2019-04-20T00:27:40.541Z,7.70
2019-04-20T00:30:05.506Z,6.60
2019-04-20T00:32:40.013Z,6.47
2019-04-20T00:34:55.857Z,7.20
2019-04-20T00:37:27.728Z,7.17
2019-04-20T00:40:01.696Z,7.83
2019-04-20T00:42:40.771Z,7.37
2019-04-20T00:45:16.237Z,7.80
2019-04-20T00:47:47.850Z,7.60
2019-04-20T00:50:30.679Z,8.60
2019-04-20T00:53:04.627Z,7.60
2019-04-20T00:55:23.278Z,7.83
2019-04-20T00:58:10.402Z,7.20
2019-04-20T01:01:02.762Z,6.70
2019-04-20T01:03:25.350Z,7.80
2019-04-20T01:06:24.786Z,8.37
2019-04-20T01:09:05.894Z,8.30
2019-04-20T01:11:42.257Z,7.77
2019-04-20T01:14:14.171Z,7.93
2019-04-20T01:16:52.892Z,7.10
2019-04-20T01:19:20.357Z,7.50
2019-04-20T01:21:59.987Z,7.10
2019-04-20T01:24:31.382Z,7.80
2019-04-20T01:27:02.521Z,8.50
2019-04-20T01:29:43.884Z,7.63
2019-04-20T01:32:15.606Z,7.93
2019-04-20T01:34:55.101Z,7.27
2019-04-20T01:37:29.250Z,9.03
2019-04-20T01:39:54.047Z,8.27
2019-04-20T01:42:23.503Z,7.50
2019-04-20T01:44:56.780Z,7.70
2019-04-20T01:47:32.086Z,7.87
2019-04-20T01:50:08.524Z,7.40
2019-04-20T01:52:47.020Z,7.30
2019-04-20T01:55:38.592Z,7.20
2019-04-20T02:01:21.132Z,7.20
2019-04-20T02:04:03.252Z,7.17
2019-04-20T02:06:39.990Z,7.23
2019-04-20T02:09:15.233Z,8.10
2019-04-20T02:11:47.286Z,7.10
2019-04-20T02:14:25.642Z,7.30
2019-04-20T02:16:58.450Z,7.07
2019-04-20T02:19:40.539Z,6.90
2019-04-20T02:22:09.784Z,6.90
2019-04-20T02:24:32.003Z,7.30
2019-04-20T02:27:04.105Z,6.97
2019-04-20T02:29:58.195Z,7.07
2019-04-20T02:32:35.976Z,7.30
2019-04-20T02:35:36.091Z,7.50
2019-04-20T02:38:18.189Z,7.57
2019-04-20T02:43:14.801Z,7.23
2019-04-20T02:45:45.370Z,7.23
2019-04-20T02:50:54.458Z,6.93
2019-04-20T02:53:32.720Z,6.93
2019-04-20T02:56:06.319Z,6.43
2019-04-20T02:58:34.721Z,7.67
2019-04-20T03:00:58.341Z,6.80
2019-04-20T03:03:19.562Z,7.47
2019-04-20T03:05:52.048Z,6.60
2019-04-20T03:08:28.195Z,6.90
2019-04-20T03:11:09.404Z,7.10
2019-04-20T03:13:46.003Z,7.20
2019-04-20T03:16:11.061Z,7.27
2019-04-20T03:18:39.892Z,7.40
2019-04-20T03:21:22.749Z,6.83
2019-04-20T03:23:59.623Z,6.73
2019-04-20T03:26:32.498Z,6.73
2019-04-20T03:29:34.887Z,6.93
2019-04-20T03:32:44.560Z,7.00
2019-04-20T03:37:20.390Z,6.90
2019-04-20T03:39:40.490Z,7.03
2019-04-20T03:42:00.944Z,7.10
2019-04-20T03:44:34.545Z,7.10
2019-04-20T03:47:08.812Z,6.03
2019-04-20T03:50:00.658Z,6.20
2019-04-20T03:52:36.494Z,6.60
2019-04-20T03:55:44.549Z,7.00
2019-04-20T03:58:36.088Z,6.37
2019-04-20T04:01:35.884Z,7.07
2019-04-20T04:04:31.226Z,6.57
2019-04-20T04:06:49.494Z,6.30
2019-04-20T04:09:30.535Z,6.63
2019-04-20T04:12:06.603Z,6.57
2019-04-20T04:14:26.073Z,6.63
2019-04-20T04:17:00.580Z,6.47
2019-04-20T04:19:38.216Z,6.77
2019-04-20T04:22:24.815Z,7.43
2019-04-20T04:25:04.764Z,7.10
2019-04-20T04:27:42.892Z,6.50
2019-04-20T04:30:13.393Z,6.43
2019-04-20T04:33:08.797Z,5.87
2019-04-20T04:35:14.241Z,6.97
2019-04-20T04:37:56.136Z,6.90
2019-04-20T04:40:34.110Z,6.97
2019-04-20T04:43:04.286Z,6.67
2019-04-20T04:45:17.703Z,6.43
2019-04-20T04:47:49.475Z,6.40
2019-04-20T04:50:24.845Z,6.27
2019-04-20T04:53:02.742Z,6.77
2019-04-20T04:55:38.126Z,5.90
2019-04-20T04:58:06.452Z,6.40
2019-04-20T05:00:40.467Z,6.73
2019-04-20T05:03:35.851Z,6.70
2019-04-20T05:06:29.209Z,6.47
2019-04-20T05:08:48.648Z,6.50
2019-04-20T05:11:15.297Z,6.33
2019-04-20T05:13:54.637Z,6.80
2019-04-20T05:16:43.567Z,6.67
2019-04-20T05:19:13.326Z,6.77
2019-04-20T05:22:11.133Z,6.23
2019-04-20T05:25:05.744Z,6.77
2019-04-20T05:27:51.243Z,6.40
2019-04-20T05:30:07.803Z,7.10
2019-04-20T05:33:01.680Z,8.30
2019-04-20T05:35:59.919Z,6.97
2019-04-20T05:38:37.069Z,6.73
2019-04-20T05:41:03.741Z,7.17
2019-04-20T05:43:41.732Z,6.87
2019-04-20T05:46:23.504Z,8.03
2019-04-20T05:48:56.197Z,8.23
2019-04-20T05:51:29.509Z,7.13
2019-04-20T05:54:02.631Z,8.53
2019-04-20T05:56:35.837Z,9.27
2019-04-20T05:59:09.771Z,8.00
2019-04-20T06:01:49.944Z,8.37
2019-04-20T06:04:17.442Z,8.57
2019-04-20T06:06:49.368Z,9.03
2019-04-20T06:09:23.051Z,8.07
2019-04-20T06:12:07.865Z,7.97
2019-04-20T06:14:55.841Z,8.77
2019-04-20T06:17:53.117Z,8.70
2019-04-20T06:20:52.495Z,8.77
2019-04-20T06:23:53.146Z,9.10
2019-04-20T06:26:35.205Z,9.10
2019-04-20T06:29:01.909Z,8.37
2019-04-20T06:31:50.579Z,9.23
2019-04-20T06:34:34.377Z,8.77
2019-04-20T06:37:16.080Z,8.73
2019-04-20T06:40:00.001Z,8.13
2019-04-20T06:42:19.345Z,8.40
2019-04-20T06:45:22.636Z,8.27
2019-04-20T06:48:13.761Z,8.00
2019-04-20T06:50:44.529Z,7.97
2019-04-20T06:53:45.510Z,8.83
2019-04-20T06:56:42.087Z,8.90
2019-04-20T06:59:20.055Z,8.20
2019-04-20T07:01:57.079Z,8.40
2019-04-20T07:04:42.743Z,8.20
2019-04-20T07:07:10.187Z,8.17
2019-04-20T07:12:24.104Z,9.03
2019-04-20T07:15:19.007Z,8.20
2019-04-20T07:18:23.224Z,9.07
2019-04-20T07:23:37.080Z,8.03
2019-04-20T07:26:04.906Z,8.57
2019-04-20T07:28:42.385Z,8.73
2019-04-20T07:31:15.256Z,9.57
2019-04-20T07:33:52.526Z,9.53
2019-04-20T07:36:32.403Z,9.23
2019-04-20T07:39:05.091Z,8.83
2019-04-20T07:42:06.426Z,10.87
2019-04-20T07:44:18.333Z,9.00
2019-04-20T07:47:07.646Z,9.43
2019-04-20T07:49:20.429Z,8.70
2019-04-20T07:51:40.017Z,8.83
2019-04-20T07:54:35.675Z,9.10
2019-04-20T07:57:05.697Z,8.77
2019-04-20T07:59:30.007Z,9.43
2019-04-20T08:04:55.106Z,8.27
2019-04-20T08:07:36.113Z,8.40
2019-04-20T08:10:01.897Z,8.93
2019-04-20T08:12:55.642Z,8.60
2019-04-20T08:15:39.162Z,8.40
2019-04-20T08:17:59.893Z,8.87
2019-04-20T08:20:35.228Z,10.10
2019-04-20T08:23:04.998Z,9.20
2019-04-20T08:25:30.588Z,9.20
2019-04-20T08:28:29.144Z,8.87
2019-04-20T08:31:26.841Z,9.27
2019-04-20T08:36:47.931Z,10.33
2019-04-20T08:39:35.715Z,9.97
2019-04-20T08:41:58.858Z,10.57
2019-04-20T08:44:46.669Z,9.73
2019-04-20T08:47:20.535Z,9.07
2019-04-20T08:50:11.601Z,9.23
2019-04-20T08:52:58.679Z,9.63
2019-04-20T08:55:07.716Z,10.47
2019-04-20T08:57:24.613Z,9.17
2019-04-20T09:00:01.456Z,10.07
2019-04-20T09:02:51.739Z,10.20
2019-04-20T09:05:34.772Z,9.63
2019-04-20T09:08:02.497Z,9.90
2019-04-20T09:10:48.187Z,9.77
2019-04-20T09:13:15.863Z,9.53
2019-04-20T09:15:36.274Z,9.13
2019-04-20T09:18:40.056Z,9.20
2019-04-20T09:21:13.962Z,9.07
2019-04-20T09:23:52.175Z,9.63
2019-04-20T09:26:32.893Z,9.70
2019-04-20T09:29:07.349Z,8.93
2019-04-20T09:31:43.292Z,9.27
2019-04-20T09:34:51.653Z,8.87
2019-04-20T09:37:25.957Z,8.47
2019-04-20T09:40:07.917Z,8.33
2019-04-20T09:42:29.337Z,8.07
2019-04-20T09:45:04.462Z,8.00
2019-04-20T09:47:41.951Z,8.87
2019-04-20T09:50:22.753Z,7.77
2019-04-20T09:52:59.129Z,8.80
2019-04-20T09:55:29.486Z,8.63
2019-04-20T09:58:18.978Z,8.73
2019-04-20T10:01:31.297Z,8.97
2019-04-20T10:03:57.003Z,8.17
2019-04-20T10:06:33.870Z,8.87
2019-04-20T10:09:03.819Z,9.53
2019-04-20T10:11:35.829Z,9.37
2019-04-20T10:14:12.306Z,9.07
2019-04-20T10:16:49.601Z,8.73
2019-04-20T10:19:28.962Z,8.80
2019-04-20T10:21:56.981Z,9.17
2019-04-20T10:24:30.631Z,9.03
2019-04-20T10:27:03.053Z,8.37
2019-04-20T10:29:35.535Z,8.83
2019-04-20T10:32:12.493Z,9.10
2019-04-20T10:34:40.920Z,9.57
2019-04-20T10:37:31.512Z,9.43
2019-04-20T10:40:02.863Z,8.57
2019-04-20T10:42:39.961Z,9.93
2019-04-20T10:45:12.750Z,9.00
2019-04-20T10:47:47.318Z,8.80
2019-04-20T10:50:37.239Z,7.83
2019-04-20T10:53:10.020Z,10.13
2019-04-20T10:55:42.946Z,9.13
2019-04-20T10:58:15.516Z,9.30
2019-04-20T11:00:53.498Z,9.30
2019-04-20T11:03:25.070Z,9.23
2019-04-20T11:05:56.528Z,9.03
2019-04-20T11:08:28.675Z,8.83
2019-04-20T11:11:10.854Z,9.17
2019-04-20T11:13:37.332Z,8.73
2019-04-20T11:16:10.694Z,8.83
2019-04-20T11:18:45.291Z,9.10
2019-04-20T11:21:19.651Z,10.00
2019-04-20T11:23:54.254Z,8.77
2019-04-20T11:26:29.120Z,8.80
2019-04-20T11:29:02.120Z,8.63
2019-04-20T11:31:43.079Z,9.30
2019-04-20T11:34:10.413Z,8.33
2019-04-20T11:36:41.459Z,8.57
2019-04-20T11:39:21.215Z,8.30
2019-04-20T11:41:55.957Z,9.70
2019-04-20T11:44:33.341Z,8.37
2019-04-20T11:47:04.603Z,8.13
2019-04-20T11:49:39.683Z,9.03
2019-04-20T11:52:18.511Z,9.57
2019-04-20T11:54:48.489Z,8.73
2019-04-20T11:57:19.634Z,8.43
2019-04-20T11:59:52.910Z,9.10
2019-04-20T12:02:47.762Z,8.83
2019-04-20T12:05:28.411Z,9.53
2019-04-20T12:08:05.049Z,9.93
2019-04-20T12:10:48.444Z,9.33
2019-04-20T12:13:16.584Z,9.10
2019-04-20T12:15:47.781Z,9.53
2019-04-20T12:18:19.839Z,10.40
2019-04-20T12:20:52.529Z,9.40
2019-04-20T12:23:26.838Z,10.67
2019-04-20T12:25:58.026Z,10.00
2019-04-20T12:28:35.842Z,10.43
2019-04-20T12:31:15.373Z,10.10
2019-04-20T12:33:50.964Z,10.77
2019-04-20T12:36:28.127Z,9.87
2019-04-20T12:39:03.413Z,10.20
2019-04-20T12:41:45.237Z,11.23
2019-04-20T12:44:12.518Z,11.10
2019-04-20T12:46:43.910Z,10.57
2019-04-20T12:49:15.847Z,9.70
2019-04-20T12:51:52.631Z,11.07
2019-04-20T12:54:22.773Z,11.10
2019-04-20T12:57:00.443Z,11.33
2019-04-20T12:59:35.926Z,11.60
2019-04-20T13:02:17.549Z,10.80
2019-04-20T13:05:01.660Z,11.97
2019-04-20T13:07:47.850Z,11.40
2019-04-20T13:10:17.861Z,12.20
2019-04-20T13:13:23.666Z,11.90
2019-04-20T13:16:10.263Z,11.70
2019-04-20T13:18:51.149Z,10.53
2019-04-20T13:21:29.374Z,11.07
2019-04-20T13:24:09.287Z,12.13
2019-04-20T13:26:43.159Z,9.77
2019-04-20T13:29:19.235Z,10.90
2019-04-20T13:31:58.513Z,10.50
2019-04-20T13:34:32.403Z,12.07
2019-04-20T13:37:06.263Z,11.27
2019-04-20T13:39:40.791Z,11.47
2019-04-20T13:42:21.195Z,11.37
2019-04-20T13:44:48.742Z,11.83
2019-04-20T13:47:20.947Z,11.63
2019-04-20T13:49:52.586Z,10.63
2019-04-20T13:52:24.521Z,9.37
2019-04-20T13:54:59.765Z,10.83
2019-04-20T13:57:50.113Z,10.80
2019-04-20T14:01:01.036Z,11.07
2019-04-20T14:03:34.754Z,11.73
2019-04-20T14:06:08.994Z,10.80
2019-04-20T14:08:45.394Z,11.83
2019-04-20T14:11:19.032Z,10.50
2019-04-20T14:14:02.799Z,11.17
2019-04-20T14:16:31.505Z,12.50
2019-04-20T14:19:02.963Z,10.83
2019-04-20T14:21:34.402Z,11.70
2019-04-20T14:24:08.913Z,11.60
2019-04-20T14:26:41.254Z,11.30
2019-04-20T14:29:16.872Z,10.67
2019-04-20T14:31:52.694Z,11.83
2019-04-20T14:34:24.809Z,11.57
2019-04-20T14:36:57.116Z,10.43
2019-04-20T14:39:28.157Z,10.20
2019-04-20T14:42:09.959Z,10.73
2019-04-20T14:44:43.741Z,10.30
2019-04-20T14:47:15.961Z,12.43
2019-04-20T14:49:48.706Z,11.40
2019-04-20T14:52:26.348Z,12.60
2019-04-20T14:54:57.632Z,12.40
2019-04-20T14:57:31.815Z,11.60
2019-04-20T15:00:13.755Z,12.13
2019-04-20T15:02:45.843Z,11.93
2019-04-20T15:05:26.252Z,12.30
2019-04-20T15:08:00.692Z,11.63
2019-04-20T15:10:32.936Z,10.70
2019-04-20T15:13:06.224Z,11.50
2019-04-20T15:15:36.748Z,10.50
2019-04-20T15:18:11.381Z,11.40
2019-04-20T15:20:48.609Z,10.50
2019-04-20T15:23:23.648Z,10.80
2019-04-20T15:25:54.943Z,10.87
2019-04-20T15:28:30.078Z,11.17
2019-04-20T15:31:02.502Z,10.87
2019-04-20T15:33:34.872Z,11.00
2019-04-20T15:36:08.354Z,11.07
2019-04-20T15:38:39.327Z,9.77
2019-04-20T15:41:13.213Z,10.73
2019-04-20T15:43:43.574Z,10.80
2019-04-20T15:46:15.323Z,9.97
2019-04-20T15:48:46.413Z,9.83
2019-04-20T15:51:17.521Z,10.30
2019-04-20T15:53:51.571Z,9.73
2019-04-20T15:56:22.780Z,10.10
2019-04-20T15:58:58.617Z,9.80
2019-04-20T16:01:36.488Z,10.27
2019-04-20T16:04:22.881Z,10.13
2019-04-20T16:06:47.451Z,9.83
2019-04-20T16:09:19.859Z,9.60
2019-04-20T16:11:52.972Z,10.33
2019-04-20T16:14:39.525Z,9.47
2019-04-20T16:17:08.655Z,9.73
2019-04-20T16:19:49.173Z,10.27
2019-04-20T16:22:13.569Z,9.70
2019-04-20T16:24:51.682Z,9.43
2019-04-20T16:27:38.511Z,9.03
2019-04-20T16:30:15.756Z,8.50
2019-04-20T16:32:46.675Z,9.70
2019-04-20T16:35:18.278Z,8.90
2019-04-20T16:37:50.503Z,8.87
2019-04-20T16:40:23.441Z,9.63
2019-04-20T16:42:54.558Z,8.63
2019-04-20T16:45:27.624Z,8.50
2019-04-20T16:50:24.811Z,7.47
2019-04-20T16:52:57.232Z,7.90
2019-04-20T16:55:30.524Z,7.77
2019-04-20T16:58:01.835Z,8.40
2019-04-20T17:00:38.747Z,8.40
2019-04-20T17:03:13.167Z,8.10
2019-04-20T17:05:48.532Z,8.00
2019-04-20T17:08:20.879Z,7.33
2019-04-20T17:10:58.067Z,7.27
2019-04-20T17:13:40.570Z,6.40
2019-04-20T17:16:10.061Z,7.63
2019-04-20T17:18:41.444Z,6.57
2019-04-20T17:21:19.099Z,6.37
2019-04-20T17:23:53.391Z,6.50
2019-04-20T17:26:37.332Z,6.03
2019-04-20T17:29:33.726Z,6.67
2019-04-20T17:32:13.770Z,6.53
2019-04-20T17:35:00.029Z,6.50
2019-04-20T17:37:22.717Z,6.70
2019-04-20T17:40:15.402Z,6.57
2019-04-20T17:42:44.664Z,6.97
2019-04-20T17:45:10.342Z,5.97
2019-04-20T17:48:03.280Z,6.27
2019-04-20T17:50:41.486Z,6.43
2019-04-20T17:53:10.157Z,6.83
2019-04-20T17:55:41.692Z,6.67
2019-04-20T17:58:17.918Z,6.77
2019-04-20T18:01:29.459Z,6.63
2019-04-20T18:04:19.735Z,6.63
2019-04-20T18:06:39.451Z,6.13
2019-04-20T18:09:07.084Z,7.27
2019-04-20T18:11:41.774Z,6.67
2019-04-20T18:14:34.172Z,7.93
2019-04-20T18:17:21.725Z,7.33
2019-04-20T18:19:58.784Z,7.10
2019-04-20T18:22:38.347Z,6.60
2019-04-20T18:25:29.741Z,7.13
2019-04-20T18:28:04.141Z,6.03
2019-04-20T18:30:52.540Z,6.83
2019-04-20T18:33:18.880Z,7.17
2019-04-20T18:35:50.697Z,6.13
2019-04-20T18:38:31.635Z,7.10
2019-04-20T18:41:04.615Z,6.80
2019-04-20T18:43:37.771Z,6.67
2019-04-20T18:46:24.915Z,7.03
2019-04-20T18:49:08.572Z,7.03
2019-04-20T18:51:23.803Z,7.07
2019-04-20T18:54:06.979Z,7.47
2019-04-20T18:56:38.298Z,6.30
2019-04-20T18:59:11.664Z,6.73
2019-04-20T19:01:46.746Z,6.60
2019-04-20T19:04:19.586Z,7.53
2019-04-20T19:06:51.969Z,6.70
2019-04-20T19:09:27.184Z,6.20
2019-04-20T19:12:02.887Z,6.80
2019-04-20T19:14:51.692Z,6.70
2019-04-20T19:18:03.012Z,6.50
2019-04-20T19:20:45.315Z,7.53
2019-04-20T19:23:16.902Z,6.57
2019-04-20T19:25:55.383Z,6.67
2019-04-20T19:28:27.972Z,6.00
2019-04-20T19:31:11.454Z,5.73
2019-04-20T19:33:57.473Z,6.43
2019-04-20T19:36:19.781Z,5.70
2019-04-20T19:38:56.444Z,5.70
2019-04-20T19:41:32.037Z,4.80
2019-04-20T19:44:10.315Z,5.23
2019-04-20T19:46:53.556Z,6.10
2019-04-20T19:49:21.972Z,6.10
2019-04-20T19:52:16.034Z,5.63
2019-04-20T19:54:42.589Z,5.90
2019-04-20T19:57:05.418Z,5.50
2019-04-20T19:59:35.651Z,6.33
2019-04-20T20:02:03.822Z,5.50
2019-04-20T20:04:41.352Z,6.37
2019-04-20T20:07:24.663Z,5.93
2019-04-20T20:09:58.407Z,5.87
2019-04-20T20:12:27.384Z,7.00
2019-04-20T20:15:06.450Z,6.67
2019-04-20T20:17:54.261Z,8.30
2019-04-20T20:20:30.397Z,8.03
2019-04-20T20:22:49.669Z,6.80
2019-04-20T20:25:18.979Z,9.17
2019-04-20T20:28:03.626Z,8.03
2019-04-20T20:30:49.267Z,7.93
2019-04-20T20:33:28.011Z,7.77
2019-04-20T20:36:10.779Z,6.77
2019-04-20T20:38:46.944Z,7.47
2019-04-20T20:41:25.625Z,7.83
2019-04-20T20:44:02.356Z,7.53
2019-04-20T20:46:36.084Z,7.27
2019-04-20T20:49:26.625Z,7.40
2019-04-20T20:52:02.176Z,7.63
2019-04-20T20:54:35.954Z,7.73
2019-04-20T20:57:02.955Z,7.20
2019-04-20T20:59:46.869Z,7.33
2019-04-20T21:02:22.498Z,7.10
2019-04-20T21:04:53.539Z,7.60
2019-04-20T21:07:28.879Z,6.93
2019-04-20T21:10:04.228Z,8.20
2019-04-20T21:12:43.575Z,7.27
2019-04-20T21:15:14.241Z,8.23
2019-04-20T21:18:12.214Z,7.23
2019-04-20T21:20:39.516Z,7.80
2019-04-20T21:23:07.168Z,7.87
2019-04-20T21:25:34.570Z,7.27
2019-04-20T21:28:02.636Z,8.83
2019-04-20T21:30:42.761Z,8.77
2019-04-20T21:33:13.210Z,9.10
2019-04-20T21:35:53.832Z,8.83
2019-04-20T21:38:31.421Z,7.87
2019-04-20T21:41:11.418Z,7.40
2019-04-20T21:43:44.477Z,9.27
2019-04-20T21:46:23.241Z,11.70
2019-04-20T21:49:05.604Z,9.40
2019-04-20T21:51:37.278Z,8.53
2019-04-20T21:54:02.915Z,9.07
2019-04-20T21:56:39.188Z,9.97
2019-04-20T21:59:17.687Z,8.53
2019-04-20T22:01:46.388Z,8.97
2019-04-20T22:04:16.424Z,8.60
2019-04-20T22:06:56.106Z,7.97
2019-04-20T22:09:34.511Z,8.03
2019-04-20T22:12:00.489Z,7.90
2019-04-20T22:14:33.834Z,8.17
2019-04-20T22:17:13.245Z,7.50
2019-04-20T22:19:52.676Z,7.37
2019-04-20T22:22:30.493Z,6.73
2019-04-20T22:25:03.824Z,8.07
2019-04-20T22:27:34.783Z,7.63
2019-04-20T22:30:12.296Z,7.87
2019-04-20T22:32:48.084Z,7.83
2019-04-20T22:35:18.828Z,7.67
2019-04-20T22:38:01.140Z,6.80
2019-04-20T22:40:32.142Z,7.33
2019-04-20T22:43:02.011Z,7.07
2019-04-20T22:45:38.954Z,7.60
2019-04-20T22:48:09.025Z,7.07
2019-04-20T22:51:01.665Z,8.07
2019-04-20T22:53:31.108Z,7.57
2019-04-20T22:56:13.632Z,7.23
2019-04-20T22:58:38.790Z,6.63
2019-04-20T23:01:04.599Z,7.37
2019-04-20T23:03:30.669Z,7.07
2019-04-20T23:06:02.862Z,7.87
2019-04-20T23:08:35.067Z,7.40
2019-04-20T23:11:13.350Z,7.57
2019-04-20T23:13:42.913Z,7.63
2019-04-20T23:16:13.337Z,7.23
2019-04-20T23:18:44.508Z,7.37
2019-04-20T23:21:17.501Z,7.00
2019-04-20T23:23:52.506Z,6.67
2019-04-20T23:26:35.923Z,6.90
2019-04-20T23:29:02.188Z,6.37
2019-04-20T23:31:34.620Z,6.37
2019-04-20T23:34:16.148Z,6.70
2019-04-20T23:36:46.861Z,6.83
2019-04-20T23:39:33.855Z,6.60
2019-04-20T23:42:02.434Z,7.00
2019-04-20T23:44:40.023Z,6.70
2019-04-20T23:47:20.145Z,7.00
2019-04-20T23:50:12.401Z,6.97
2019-04-20T23:52:53.320Z,6.83
2019-04-20T23:55:13.352Z,7.33
2019-04-20T23:57:54.701Z,7.13
